Kaministiqua — CFN4612 — position and weather

sailwx.info

Track history (hours):
 
Tides and Currents Weather Stations Pressure Air Temp Water Temp Dewpoint Dewpoint Depression Visibility Wind Speed Wind Dir Waves Ship Positions

Kaministiqua

Last reported at 2017-Dec-19 04:37 UTC. Time now 2018-Jan-21 18:54 UTC.
Position N 45°43' W 083°40'.
Warning: this ship's position is 33 days out of date.

Length 223 m; draft 8.1 m.

Type: Cargo ship. MMSI: 316009457.

Date/timePositionNaut miles runAvg speedWind from/ knotsBaromVisibWave heightAir tempDewpointWater temp
2017-Dec-19 04:37N 45°43' W 083°40'112.4
2017-Dec-19 04:30N 45°42' W 083°39'612.3
2017-Dec-19 04:00N 45°36' W 083°34'612.4
2017-Dec-19 03:30N 45°31' W 083°29'612.6
2017-Dec-19 03:00N 45°26' W 083°24'  
2017-Dec-15 21:42N 45°14' W 074°15'210.7
2017-Dec-15 21:30N 45°14' W 074°11'6 8.7
2017-Dec-15 20:48N 45°13' W 074°03'2 8.4
2017-Dec-15 20:30N 45°14' W 073°60'4 8.5
2017-Dec-15 20:01N 45°18' W 073°56'1 1.4
2017-Dec-15 19:31N 45°18' W 073°56'0 0.6
2017-Dec-15 19:01N 45°19' W 073°55'1 1.0
2017-Dec-15 18:31N 45°19' W 073°55'0 0.0
2017-Dec-15 18:01N 45°19' W 073°55'1 1.1
2017-Dec-15 17:30N 45°20' W 073°55'4 8.3
2017-Dec-15 17:00N 45°22' W 073°50'5 9.7
2017-Dec-15 16:30N 45°24' W 073°44'3 5.7
2017-Dec-15 16:00N 45°25' W 073°40'2 4.4
2017-Dec-15 15:30N 45°24' W 073°37'2 3.4
2017-Dec-15 15:01N 45°24' W 073°35'1 1.0
2017-Dec-15 14:31N 45°24' W 073°34'0 0.7
2017-Dec-15 14:01N 45°24' W 073°33'2 3.9
2017-Dec-15 13:30N 45°25' W 073°31'3 6.2
2017-Dec-15 12:58N 45°28' W 073°30'  
2017-Dec-10 02:00N 45°32' W 073°32'2 4.0
2017-Dec-10 01:26N 45°30' W 073°31'0 0.2
2017-Dec-10 00:56N 45°30' W 073°31'1 2.0
2017-Dec-10 00:25N 45°29' W 073°31'2 5.9
2017-Dec-10 00:01N 45°26' W 073°30'3 5.5
2017-Dec-09 23:29N 45°24' W 073°33'1 1.0
2017-Dec-09 23:00N 45°24' W 073°34'0 0.9
2017-Dec-09 22:30N 45°24' W 073°35'2 4.1
2017-Dec-09 21:59N 45°24' W 073°38'3 5.4
2017-Dec-09 21:30N 45°25' W 073°41'3 6.9
2017-Dec-09 21:00N 45°24' W 073°46'611.2
2017-Dec-09 20:30N 45°21' W 073°52'3 5.6
2017-Dec-09 20:01N 45°19' W 073°55'0 0.5
2017-Dec-09 19:31N 45°19' W 073°55'1 1.2
2017-Dec-09 19:01N 45°18' W 073°56'0 0.5
2017-Dec-09 18:31N 45°18' W 073°56'1 2.7
2017-Dec-09 18:01N 45°17' W 073°57'3 6.7
2017-Dec-09 17:31N 45°14' W 073°60'5 9.4
2017-Dec-09 16:58N 45°14' W 074°07'510.4
2017-Dec-09 16:30N 45°14' W 074°14'  
Track history (hours):
 
Tides and Currents Weather Stations Pressure Air Temp Water Temp Dewpoint Dewpoint Depression Visibility Wind Speed Wind Dir Waves Ship Positions

Kaministiqua

Last reported at 2017-Dec-19 04:37 UTC. Time now 2018-Jan-21 18:54 UTC.
Position N 45°43' W 083°40'.
Warning: this ship's position is 33 days out of date.

Length 223 m; draft 8.1 m.

Type: Cargo ship. MMSI: 316009457.

Date/timePositionNaut miles runAvg speedWind from/ knotsBaromVisibWave heightAir tempDewpointWater temp
2017-Dec-19 04:37N 45°43' W 083°40'112.4
2017-Dec-19 04:30N 45°42' W 083°39'612.3
2017-Dec-19 04:00N 45°36' W 083°34'612.4
2017-Dec-19 03:30N 45°31' W 083°29'612.6
2017-Dec-19 03:00N 45°26' W 083°24'  
2017-Dec-15 21:42N 45°14' W 074°15'210.7
2017-Dec-15 21:30N 45°14' W 074°11'6 8.7
2017-Dec-15 20:48N 45°13' W 074°03'2 8.4
2017-Dec-15 20:30N 45°14' W 073°60'4 8.5
2017-Dec-15 20:01N 45°18' W 073°56'1 1.4
2017-Dec-15 19:31N 45°18' W 073°56'0 0.6
2017-Dec-15 19:01N 45°19' W 073°55'1 1.0
2017-Dec-15 18:31N 45°19' W 073°55'0 0.0
2017-Dec-15 18:01N 45°19' W 073°55'1 1.1
2017-Dec-15 17:30N 45°20' W 073°55'4 8.3
2017-Dec-15 17:00N 45°22' W 073°50'5 9.7
2017-Dec-15 16:30N 45°24' W 073°44'3 5.7
2017-Dec-15 16:00N 45°25' W 073°40'2 4.4
2017-Dec-15 15:30N 45°24' W 073°37'2 3.4
2017-Dec-15 15:01N 45°24' W 073°35'1 1.0
2017-Dec-15 14:31N 45°24' W 073°34'0 0.7
2017-Dec-15 14:01N 45°24' W 073°33'2 3.9
2017-Dec-15 13:30N 45°25' W 073°31'3 6.2
2017-Dec-15 12:58N 45°28' W 073°30'  
2017-Dec-10 02:00N 45°32' W 073°32'2 4.0
2017-Dec-10 01:26N 45°30' W 073°31'0 0.2
2017-Dec-10 00:56N 45°30' W 073°31'1 2.0
2017-Dec-10 00:25N 45°29' W 073°31'2 5.9
2017-Dec-10 00:01N 45°26' W 073°30'3 5.5
2017-Dec-09 23:29N 45°24' W 073°33'1 1.0
2017-Dec-09 23:00N 45°24' W 073°34'0 0.9
2017-Dec-09 22:30N 45°24' W 073°35'2 4.1
2017-Dec-09 21:59N 45°24' W 073°38'3 5.4
2017-Dec-09 21:30N 45°25' W 073°41'3 6.9
2017-Dec-09 21:00N 45°24' W 073°46'611.2
2017-Dec-09 20:30N 45°21' W 073°52'3 5.6
2017-Dec-09 20:01N 45°19' W 073°55'0 0.5
2017-Dec-09 19:31N 45°19' W 073°55'1 1.2
2017-Dec-09 19:01N 45°18' W 073°56'0 0.5
2017-Dec-09 18:31N 45°18' W 073°56'1 2.7
2017-Dec-09 18:01N 45°17' W 073°57'3 6.7
2017-Dec-09 17:31N 45°14' W 073°60'5 9.4
2017-Dec-09 16:58N 45°14' W 074°07'510.4
2017-Dec-09 16:30N 45°14' W 074°14'  

Dump ship's entire track history